Terminal Aerodrome Forecast
Issued by NWS Sterling, VA

Home | Current Version | Previous Version | Text Only | Print | Product List | Glossary On
Versions: 1 2 3 4 5 6 7 8 9 10 11 12 13 14 15 16 17 18 19
000
FTUS41 KLWX 262104 AAA
TAFIAD
TAF AMD
KIAD 262104Z 2621/2724 20010KT P6SM VCTS BKN060CB
     FM270100 18004KT P6SM BKN060
     FM271100 VRB03KT P6SM SCT100=

USA.gov is the U.S. government's official web portal to all federal, state and local government web resources and services.